Time;durP1;ratioP1;P1;durP2;ratioP2;P2;SDS_P1;SDS_P2;PMS_P1;PMS_P2;Temp;Humidity;BMP_temperature;BMP_pressure;BME280_temperature;BME280_humidity;BME280_pressure;Samples;Min_cycle;Max_cycle;Signal;HPM_P1;HPM_P2
2022/10/22 00:01:00;;;;;;;23.77;11.57;;;;;;;;;;5086140;28;20381;-57
2022/10/22 00:03:26;;;;;;;21.23;11.73;;;;;;;;;;5087697;28;20024;-57
2022/10/22 00:05:51;;;;;;;27.08;12.45;;;;;;;;;;5077812;28;20085;-57
2022/10/22 00:08:16;;;;;;;16.13;11.80;;;;;;;;;;5090862;28;20016;-57
2022/10/22 00:10:41;;;;;;;20.23;12.55;;;;;;;;;;5098246;28;20020;-57
2022/10/22 00:13:06;;;;;;;21.63;13.00;;;;;;;;;;5095259;28;20153;-57
2022/10/22 00:15:32;;;;;;;22.25;12.07;;;;;;;;;;5089767;28;20063;-56
2022/10/22 00:17:57;;;;;;;24.65;13.57;;;;;;;;;;5098212;28;20488;-57
2022/10/22 00:20:22;;;;;;;21.00;12.35;;;;;;;;;;5086056;28;20040;-57
2022/10/22 00:22:47;;;;;;;22.75;13.35;;;;;;;;;;5090030;28;20017;-57
2022/10/22 00:25:13;;;;;;;26.38;12.65;;;;;;;;;;5098235;28;20488;-57
2022/10/22 00:27:38;;;;;;;18.98;11.27;;;;;;;;;;5086221;28;20440;-57
2022/10/22 00:30:03;;;;;;;23.20;12.00;;;;;;;;;;5099017;28;20355;-57
2022/10/22 00:32:29;;;;;;;20.80;11.30;;;;;;;;;;5089886;28;20427;-58
2022/10/22 00:34:54;;;;;;;24.83;10.88;;;;;;;;;;5092187;28;20077;-57
2022/10/22 00:37:19;;;;;;;18.15;10.30;;;;;;;;;;5112607;27;20084;-57
2022/10/22 00:39:45;;;;;;;20.48;11.43;;;;;;;;;;5090989;28;20065;-57
2022/10/22 00:42:20;;;;;;;18.10;9.68;;;;;;;;;;5090584;28;20046;-57
2022/10/22 00:45:00;;;;;;;18.33;9.32;;;;;;;;;;5078506;28;20020;-57
2022/10/22 00:47:36;;;;;;;13.02;8.80;;;;;;;;;;5093358;28;20379;-57
2022/10/22 00:50:02;;;;;;;16.50;10.05;;;;;;;;;;5077665;28;20069;-57
2022/10/22 00:52:28;;;;;;;16.95;9.75;;;;;;;;;;5087839;28;20107;-57
2022/10/22 00:54:53;;;;;;;13.93;9.93;;;;;;;;;;5086011;28;20103;-57
2022/10/22 00:57:18;;;;;;;21.75;10.25;;;;;;;;;;5109939;27;20066;-57
2022/10/22 00:59:44;;;;;;;28.75;11.77;;;;;;;;;;5097055;28;20470;-58
2022/10/22 01:02:09;;;;;;;21.08;10.90;;;;;;;;;;5092906;28;20063;-57
2022/10/22 01:04:34;;;;;;;18.50;10.77;;;;;;;;;;5089960;28;20023;-57
2022/10/22 01:07:00;;;;;;;23.33;11.55;;;;;;;;;;5094383;28;20066;-57
2022/10/22 01:09:43;;;;;;;22.20;10.93;;;;;;;;;;5089041;28;20441;-57
2022/10/22 01:12:15;;;;;;;17.67;9.27;;;;;;;;;;5096284;28;20032;-57
2022/10/22 01:14:43;;;;;;;19.75;11.00;;;;;;;;;;5091943;28;20020;-57
2022/10/22 01:17:09;;;;;;;18.25;9.43;;;;;;;;;;5103995;28;20016;-57
2022/10/22 01:19:37;;;;;;;13.80;9.50;;;;;;;;;;5087487;28;20016;-57
2022/10/22 01:22:04;;;;;;;15.30;9.52;;;;;;;;;;5089590;28;20036;-57
2022/10/22 01:24:34;;;;;;;15.20;9.30;;;;;;;;;;5091938;28;20370;-57
2022/10/22 01:27:07;;;;;;;14.40;8.60;;;;;;;;;;5097289;28;20028;-58
2022/10/22 01:29:33;;;;;;;25.85;9.35;;;;;;;;;;5079022;28;20023;-57
2022/10/22 01:32:00;;;;;;;20.88;10.23;;;;;;;;;;5084154;28;20074;-58
2022/10/22 01:34:25;;;;;;;17.45;9.25;;;;;;;;;;5091014;28;20028;-57
2022/10/22 01:36:50;;;;;;;20.45;10.10;;;;;;;;;;5082144;28;20012;-56
2022/10/22 01:39:15;;;;;;;19.38;9.43;;;;;;;;;;5093084;28;20038;-57
2022/10/22 01:41:44;;;;;;;19.73;11.10;;;;;;;;;;5087839;28;20032;-58
2022/10/22 01:44:25;;;;;;;20.40;10.18;;;;;;;;;;5088537;28;20021;-57
2022/10/22 01:46:52;;;;;;;19.42;9.70;;;;;;;;;;5085040;28;20507;-57
2022/10/22 01:49:28;;;;;;;13.45;10.27;;;;;;;;;;5098010;28;20376;-57
2022/10/22 01:51:58;;;;;;;21.10;10.82;;;;;;;;;;5089216;28;20713;-57
2022/10/22 01:54:29;;;;;;;21.05;9.93;;;;;;;;;;5094402;28;20031;-57
2022/10/22 01:57:06;;;;;;;25.38;12.18;;;;;;;;;;5089176;28;20043;-57
2022/10/22 01:59:34;;;;;;;20.83;11.40;;;;;;;;;;5097103;28;20124;-58
2022/10/22 02:02:06;;;;;;;20.70;12.43;;;;;;;;;;5091717;28;20036;-57
2022/10/22 02:04:35;;;;;;;19.60;12.10;;;;;;;;;;5090904;28;20462;-57
2022/10/22 02:07:00;;;;;;;22.70;12.27;;;;;;;;;;5091077;28;20086;-57
2022/10/22 02:09:26;;;;;;;20.67;11.50;;;;;;;;;;5088343;28;20404;-58
2022/10/22 02:11:52;;;;;;;26.20;11.50;;;;;;;;;;5095312;28;20042;-57
2022/10/22 02:14:17;;;;;;;19.50;11.18;;;;;;;;;;5094291;28;20437;-57
2022/10/22 02:16:43;;;;;;;25.83;12.18;;;;;;;;;;5093395;28;20019;-57
2022/10/22 02:19:31;;;;;;;27.45;13.48;;;;;;;;;;5087735;28;20024;-58
2022/10/22 02:21:56;;;;;;;21.85;13.13;;;;;;;;;;5062664;28;20096;-57
2022/10/22 02:24:22;;;;;;;24.58;12.93;;;;;;;;;;5085914;28;20107;-57
2022/10/22 02:26:50;;;;;;;23.63;13.02;;;;;;;;;;5085021;28;20021;-57
2022/10/22 02:29:32;;;;;;;26.35;14.20;;;;;;;;;;5092333;28;20019;-57
2022/10/22 02:31:57;;;;;;;29.90;13.32;;;;;;;;;;5089646;28;20111;-57
2022/10/22 02:34:23;;;;;;;20.02;10.95;;;;;;;;;;5076425;28;20107;-57
2022/10/22 02:36:48;;;;;;;26.40;12.40;;;;;;;;;;5082510;28;20098;-58
2022/10/22 02:39:13;;;;;;;25.33;11.80;;;;;;;;;;5088213;28;20051;-57
2022/10/22 02:41:39;;;;;;;22.83;11.32;;;;;;;;;;5078609;28;20047;-57
2022/10/22 02:44:06;;;;;;;20.10;11.40;;;;;;;;;;5088392;28;20021;-57
2022/10/22 02:46:31;;;;;;;16.25;10.85;;;;;;;;;;5087321;28;20580;-57
2022/10/22 02:48:57;;;;;;;21.52;12.02;;;;;;;;;;5086576;28;20115;-57
2022/10/22 02:51:22;;;;;;;18.60;10.55;;;;;;;;;;5091955;28;20020;-58
2022/10/22 02:53:47;;;;;;;20.33;10.98;;;;;;;;;;5090676;28;20028;-57
2022/10/22 02:56:13;;;;;;;19.80;11.32;;;;;;;;;;5086741;28;20427;-57
2022/10/22 02:58:38;;;;;;;18.55;11.10;;;;;;;;;;5091797;28;20471;-57
2022/10/22 03:01:03;;;;;;;21.23;12.18;;;;;;;;;;5086443;28;20035;-57
2022/10/22 03:03:29;;;;;;;23.33;13.63;;;;;;;;;;5092813;28;20653;-57
2022/10/22 03:05:54;;;;;;;18.73;11.75;;;;;;;;;;5093684;28;20575;-57
2022/10/22 03:08:19;;;;;;;23.33;11.88;;;;;;;;;;5083568;28;20031;-57
2022/10/22 03:10:44;;;;;;;22.55;12.50;;;;;;;;;;5092854;28;20492;-58
2022/10/22 03:13:09;;;;;;;21.67;12.70;;;;;;;;;;5093959;28;20384;-57
2022/10/22 03:15:35;;;;;;;23.98;14.23;;;;;;;;;;5097215;28;20200;-57
2022/10/22 03:18:00;;;;;;;23.55;12.57;;;;;;;;;;5091818;28;20054;-58
2022/10/22 03:20:25;;;;;;;23.33;13.18;;;;;;;;;;5090978;28;20027;-57
2022/10/22 03:22:50;;;;;;;26.58;13.88;;;;;;;;;;5087347;28;20128;-57
2022/10/22 03:25:18;;;;;;;21.85;13.60;;;;;;;;;;5095737;28;20051;-57
2022/10/22 03:27:43;;;;;;;23.20;13.32;;;;;;;;;;5084432;28;20020;-57
2022/10/22 03:30:08;;;;;;;24.10;11.75;;;;;;;;;;5087007;28;20032;-57
2022/10/22 03:32:34;;;;;;;20.55;11.68;;;;;;;;;;5089291;28;20024;-57
2022/10/22 03:34:59;;;;;;;26.17;14.35;;;;;;;;;;5096818;28;20020;-57
2022/10/22 03:37:24;;;;;;;24.80;13.23;;;;;;;;;;5078293;28;20028;-57
2022/10/22 03:39:49;;;;;;;25.73;12.65;;;;;;;;;;5095218;28;20051;-57
2022/10/22 03:42:16;;;;;;;25.95;12.77;;;;;;;;;;5087526;28;20334;-57
2022/10/22 03:44:41;;;;;;;21.45;12.68;;;;;;;;;;5085585;28;20097;-57
2022/10/22 03:47:06;;;;;;;22.67;13.35;;;;;;;;;;5095295;28;20047;-57
2022/10/22 03:49:31;;;;;;;25.80;13.38;;;;;;;;;;5099166;28;20100;-56
2022/10/22 03:51:57;;;;;;;22.17;13.27;;;;;;;;;;5095624;28;20032;-57
2022/10/22 03:54:22;;;;;;;19.33;12.77;;;;;;;;;;5087376;28;20016;-57
2022/10/22 03:56:47;;;;;;;23.65;12.80;;;;;;;;;;5092131;28;20034;-57
2022/10/22 03:59:13;;;;;;;29.75;13.48;;;;;;;;;;5100942;28;20019;-57
2022/10/22 04:01:39;;;;;;;26.10;13.57;;;;;;;;;;5092582;28;20033;-57
2022/10/22 04:04:04;;;;;;;20.40;12.40;;;;;;;;;;5082395;28;20017;-57
2022/10/22 04:06:29;;;;;;;32.35;13.77;;;;;;;;;;5090219;28;20054;-57
2022/10/22 04:08:54;;;;;;;22.02;13.30;;;;;;;;;;5086277;28;20091;-57
2022/10/22 04:11:20;;;;;;;24.27;13.13;;;;;;;;;;5092370;28;20046;-57
2022/10/22 04:13:45;;;;;;;25.48;12.65;;;;;;;;;;5091398;28;20430;-57
2022/10/22 04:16:10;;;;;;;21.85;12.52;;;;;;;;;;5092633;28;20028;-57
2022/10/22 04:18:36;;;;;;;21.50;12.55;;;;;;;;;;5090351;28;20488;-58
2022/10/22 04:21:01;;;;;;;24.55;12.25;;;;;;;;;;5089590;28;20028;-58
2022/10/22 04:23:26;;;;;;;20.65;13.02;;;;;;;;;;5096948;28;20007;-57
2022/10/22 04:25:56;;;;;;;20.50;12.80;;;;;;;;;;5094043;28;20046;-57
2022/10/22 04:28:21;;;;;;;20.50;11.45;;;;;;;;;;5082691;28;20023;-57
2022/10/22 04:30:46;;;;;;;26.27;11.48;;;;;;;;;;5084862;28;20671;-57
2022/10/22 04:33:12;;;;;;;22.83;12.05;;;;;;;;;;5090846;28;20523;-57
2022/10/22 04:35:38;;;;;;;18.75;10.48;;;;;;;;;;5082077;28;20047;-57
2022/10/22 04:38:03;;;;;;;24.58;11.23;;;;;;;;;;5081070;28;20127;-57
2022/10/22 04:40:28;;;;;;;29.10;11.13;;;;;;;;;;5083292;28;20035;-57
2022/10/22 04:42:54;;;;;;;16.40;9.73;;;;;;;;;;5087694;28;20154;-57
2022/10/22 04:45:19;;;;;;;17.17;10.82;;;;;;;;;;5093440;28;20032;-57
2022/10/22 04:47:44;;;;;;;16.70;10.82;;;;;;;;;;5090416;28;20016;-57
2022/10/22 04:50:09;;;;;;;17.08;10.65;;;;;;;;;;5090939;28;20471;-57
2022/10/22 04:52:35;;;;;;;21.10;10.20;;;;;;;;;;5086671;28;20040;-57
2022/10/22 04:55:00;;;;;;;19.80;9.30;;;;;;;;;;5087731;28;20024;-57
2022/10/22 04:57:28;;;;;;;17.80;9.38;;;;;;;;;;5092826;28;20082;-57
2022/10/22 04:59:53;;;;;;;21.15;9.93;;;;;;;;;;5089591;28;20023;-57
2022/10/22 05:02:18;;;;;;;19.30;9.10;;;;;;;;;;5087070;28;20023;-57
2022/10/22 05:04:44;;;;;;;20.05;8.93;;;;;;;;;;5091126;28;20103;-57
2022/10/22 05:07:09;;;;;;;25.35;10.02;;;;;;;;;;5086442;28;20047;-57
2022/10/22 05:09:34;;;;;;;22.95;8.70;;;;;;;;;;5091840;28;20031;-57
2022/10/22 05:11:59;;;;;;;20.17;8.77;;;;;;;;;;5092101;28;20098;-57
2022/10/22 05:14:25;;;;;;;18.40;9.27;;;;;;;;;;5089463;28;20032;-57
2022/10/22 05:16:50;;;;;;;18.83;7.90;;;;;;;;;;5080981;28;20020;-57
2022/10/22 05:19:17;;;;;;;17.17;8.23;;;;;;;;;;5085883;28;20481;-57
2022/10/22 05:21:42;;;;;;;17.25;7.80;;;;;;;;;;5097513;28;20104;-57
2022/10/22 05:24:07;;;;;;;24.02;8.43;;;;;;;;;;5092545;28;20499;-57
2022/10/22 05:26:33;;;;;;;24.90;7.57;;;;;;;;;;5084205;28;20027;-57
2022/10/22 05:28:58;;;;;;;14.45;7.15;;;;;;;;;;5088136;28;20020;-57
2022/10/22 05:31:23;;;;;;;13.70;7.43;;;;;;;;;;5089257;28;20031;-57
2022/10/22 05:33:48;;;;;;;13.90;6.90;;;;;;;;;;5083484;28;20020;-57
2022/10/22 05:36:15;;;;;;;13.55;6.53;;;;;;;;;;5093451;28;20027;-57
2022/10/22 05:38:40;;;;;;;19.27;6.28;;;;;;;;;;5094882;28;20024;-57
2022/10/22 05:41:06;;;;;;;12.73;6.75;;;;;;;;;;5085284;28;20032;-57
2022/10/22 05:43:31;;;;;;;20.40;7.55;;;;;;;;;;5087046;28;20043;-57
2022/10/22 05:46:00;;;;;;;15.10;6.60;;;;;;;;;;5092047;28;20058;-57
2022/10/22 05:48:26;;;;;;;16.27;6.80;;;;;;;;;;5089486;28;20045;-58
2022/10/22 05:50:51;;;;;;;15.18;6.90;;;;;;;;;;5089031;28;20607;-58
2022/10/22 05:53:17;;;;;;;17.38;6.30;;;;;;;;;;5072861;28;20704;-58
2022/10/22 05:55:42;;;;;;;17.38;6.38;;;;;;;;;;5070275;28;20673;-58
2022/10/22 05:58:08;;;;;;;13.70;6.90;;;;;;;;;;5082963;28;20034;-58
2022/10/22 06:00:33;;;;;;;9.38;6.03;;;;;;;;;;5091954;28;20051;-56
2022/10/22 06:02:58;;;;;;;17.20;7.32;;;;;;;;;;5092992;28;20025;-57
2022/10/22 06:05:24;;;;;;;14.27;6.78;;;;;;;;;;5098141;28;20048;-57
2022/10/22 06:07:49;;;;;;;15.73;6.55;;;;;;;;;;5091498;28;20012;-57
2022/10/22 06:10:15;;;;;;;14.07;6.88;;;;;;;;;;5084816;28;20638;-57
2022/10/22 06:12:40;;;;;;;19.67;7.60;;;;;;;;;;5094995;28;20023;-57
2022/10/22 06:15:06;;;;;;;12.60;6.72;;;;;;;;;;5092822;28;20618;-57
2022/10/22 06:17:31;;;;;;;19.50;6.63;;;;;;;;;;5086144;28;20059;-57
2022/10/22 06:19:56;;;;;;;14.15;6.82;;;;;;;;;;5093467;28;20440;-57
2022/10/22 06:22:21;;;;;;;15.20;6.45;;;;;;;;;;5086789;28;20400;-57
2022/10/22 06:24:47;;;;;;;14.18;6.20;;;;;;;;;;5089362;28;20051;-57
2022/10/22 06:27:12;;;;;;;17.98;6.70;;;;;;;;;;5094391;28;20076;-57
2022/10/22 06:29:37;;;;;;;12.98;6.20;;;;;;;;;;5083199;28;20780;-57
2022/10/22 06:32:02;;;;;;;19.08;6.45;;;;;;;;;;5088335;28;20429;-56
2022/10/22 06:34:27;;;;;;;14.73;6.47;;;;;;;;;;5087208;28;20030;-58
2022/10/22 06:36:53;;;;;;;12.02;6.00;;;;;;;;;;5084121;28;20039;-57
2022/10/22 06:39:18;;;;;;;12.60;5.60;;;;;;;;;;5090975;28;20019;-58
2022/10/22 06:41:43;;;;;;;11.05;5.47;;;;;;;;;;5078712;28;20032;-58
2022/10/22 06:44:12;;;;;;;18.38;5.70;;;;;;;;;;5084563;28;20027;-58
2022/10/22 06:46:38;;;;;;;12.93;5.50;;;;;;;;;;5082296;28;20028;-58
2022/10/22 06:49:04;;;;;;;11.30;4.47;;;;;;;;;;5091522;28;20016;-58
2022/10/22 06:51:29;;;;;;;10.23;4.32;;;;;;;;;;5095302;28;20114;-58
2022/10/22 06:53:55;;;;;;;8.43;4.40;;;;;;;;;;5084657;28;20103;-58
2022/10/22 06:56:21;;;;;;;11.00;3.72;;;;;;;;;;5093352;28;20024;-57
2022/10/22 06:58:49;;;;;;;8.80;3.75;;;;;;;;;;5090451;28;20062;-57
2022/10/22 07:01:15;;;;;;;11.40;4.10;;;;;;;;;;5086079;28;20104;-58
2022/10/22 07:03:40;;;;;;;9.57;4.30;;;;;;;;;;5090685;28;20081;-57
2022/10/22 07:06:06;;;;;;;9.05;3.88;;;;;;;;;;5090294;28;20048;-57
2022/10/22 07:08:32;;;;;;;9.85;3.88;;;;;;;;;;5089084;28;20015;-57
2022/10/22 07:11:03;;;;;;;10.88;3.55;;;;;;;;;;5082073;28;20020;-57
2022/10/22 07:13:28;;;;;;;11.05;3.78;;;;;;;;;;5080325;28;20559;-57
2022/10/22 07:15:54;;;;;;;12.13;3.50;;;;;;;;;;5080071;28;20024;-58
2022/10/22 07:18:19;;;;;;;11.15;3.88;;;;;;;;;;5104094;28;20114;-57
2022/10/22 07:20:45;;;;;;;10.18;3.80;;;;;;;;;;5087502;28;20485;-57
2022/10/22 07:23:11;;;;;;;11.10;3.25;;;;;;;;;;5089540;28;20417;-57
2022/10/22 07:25:36;;;;;;;9.43;3.20;;;;;;;;;;5084683;28;20016;-57
2022/10/22 07:28:01;;;;;;;12.55;4.07;;;;;;;;;;5086919;28;20776;-57
2022/10/22 07:30:26;;;;;;;7.38;3.33;;;;;;;;;;5088358;28;20021;-57
2022/10/22 07:32:52;;;;;;;9.35;3.60;;;;;;;;;;5081988;28;20013;-57
2022/10/22 07:35:17;;;;;;;9.55;3.38;;;;;;;;;;5078024;28;20028;-58
2022/10/22 07:37:42;;;;;;;8.48;3.13;;;;;;;;;;5084034;28;20019;-58
2022/10/22 07:40:08;;;;;;;7.07;3.00;;;;;;;;;;5086955;28;21002;-58
2022/10/22 07:42:33;;;;;;;10.38;3.33;;;;;;;;;;5090880;28;20025;-57
2022/10/22 07:44:58;;;;;;;7.88;2.90;;;;;;;;;;5091239;28;20061;-58
2022/10/22 07:47:24;;;;;;;8.57;2.70;;;;;;;;;;5102820;28;20104;-57
2022/10/22 07:49:49;;;;;;;6.32;2.80;;;;;;;;;;5093284;28;20028;-58
2022/10/22 07:52:14;;;;;;;10.98;2.65;;;;;;;;;;5090143;28;20046;-57
2022/10/22 07:54:40;;;;;;;8.68;2.85;;;;;;;;;;5087644;28;20028;-57
2022/10/22 07:57:05;;;;;;;11.60;2.80;;;;;;;;;;5088587;28;20033;-57
2022/10/22 07:59:30;;;;;;;11.82;2.75;;;;;;;;;;5092868;28;20020;-57
2022/10/22 08:01:55;;;;;;;8.10;2.38;;;;;;;;;;5090784;28;20434;-57
2022/10/22 08:04:20;;;;;;;13.23;2.67;;;;;;;;;;5092683;28;20441;-57
2022/10/22 08:06:46;;;;;;;10.82;2.70;;;;;;;;;;5084625;28;20056;-57
2022/10/22 08:09:11;;;;;;;12.70;2.80;;;;;;;;;;5093422;28;20028;-57
2022/10/22 08:11:37;;;;;;;7.95;2.55;;;;;;;;;;5086344;28;20016;-58
2022/10/22 08:14:03;;;;;;;6.10;2.20;;;;;;;;;;5086044;28;20111;-58
2022/10/22 08:16:28;;;;;;;8.30;2.33;;;;;;;;;;5094904;28;20110;-57
2022/10/22 08:18:53;;;;;;;7.35;2.55;;;;;;;;;;5092303;28;20024;-57
2022/10/22 08:21:18;;;;;;;16.80;2.75;;;;;;;;;;5090962;28;20028;-58
2022/10/22 08:23:44;;;;;;;7.32;2.17;;;;;;;;;;5087280;28;20043;-57
2022/10/22 08:26:09;;;;;;;7.65;2.58;;;;;;;;;;5089074;28;20149;-57
2022/10/22 08:28:36;;;;;;;6.30;2.13;;;;;;;;;;5094669;28;20151;-57
2022/10/22 08:31:02;;;;;;;11.52;2.30;;;;;;;;;;5088516;28;20032;-57
2022/10/22 08:33:27;;;;;;;14.60;2.47;;;;;;;;;;5089178;28;20040;-58
2022/10/22 08:35:52;;;;;;;5.32;2.03;;;;;;;;;;5085006;28;20052;-59
2022/10/22 08:38:18;;;;;;;5.80;2.00;;;;;;;;;;5089287;28;20466;-58
2022/10/22 08:40:43;;;;;;;5.90;1.90;;;;;;;;;;5088675;28;20040;-58
2022/10/22 08:43:24;;;;;;;11.93;2.35;;;;;;;;;;5096312;28;20432;-57
2022/10/22 08:45:59;;;;;;;7.95;2.47;;;;;;;;;;5088718;28;20475;-58
2022/10/22 08:48:43;;;;;;;8.05;2.38;;;;;;;;;;5086130;28;20389;-57
2022/10/22 08:51:10;;;;;;;5.00;2.33;;;;;;;;;;5086573;28;20017;-57
2022/10/22 08:53:38;;;;;;;8.55;2.38;;;;;;;;;;5097444;28;20579;-57
2022/10/22 08:56:03;;;;;;;5.47;2.20;;;;;;;;;;5086796;28;20028;-57
2022/10/22 08:58:32;;;;;;;5.22;2.03;;;;;;;;;;5092289;28;20384;-57
2022/10/22 09:00:58;;;;;;;5.95;1.92;;;;;;;;;;5090910;28;20058;-57
2022/10/22 09:03:41;;;;;;;5.45;2.00;;;;;;;;;;5084721;28;20035;-58
2022/10/22 09:06:12;;;;;;;6.13;2.60;;;;;;;;;;5087225;28;20048;-57
2022/10/22 09:08:38;;;;;;;6.85;2.40;;;;;;;;;;5088992;28;20419;-57
2022/10/22 09:11:09;;;;;;;11.00;2.20;;;;;;;;;;5087422;28;20119;-57
2022/10/22 09:13:35;;;;;;;8.23;2.10;;;;;;;;;;5078621;28;20032;-57
2022/10/22 09:16:01;;;;;;;7.13;2.15;;;;;;;;;;5099725;28;20012;-57
2022/10/22 09:18:32;;;;;;;7.70;2.30;;;;;;;;;;5089700;28;20028;-57
2022/10/22 09:21:17;;;;;;;5.65;1.92;;;;;;;;;;5087598;28;20055;-57
2022/10/22 09:23:55;;;;;;;5.30;1.80;;;;;;;;;;5094622;28;20034;-57
2022/10/22 09:26:20;;;;;;;11.57;2.20;;;;;;;;;;5082538;28;20032;-57
2022/10/22 09:28:48;;;;;;;9.35;2.30;;;;;;;;;;5078093;28;20043;-56
2022/10/22 09:31:13;;;;;;;6.55;2.08;;;;;;;;;;5083487;28;20024;-57
2022/10/22 09:33:39;;;;;;;7.88;2.08;;;;;;;;;;5077556;28;20016;-57
2022/10/22 09:36:06;;;;;;;12.30;2.20;;;;;;;;;;5074573;28;20024;-57
2022/10/22 09:38:32;;;;;;;4.35;1.92;;;;;;;;;;5076086;28;20478;-57
2022/10/22 09:40:58;;;;;;;12.05;2.28;;;;;;;;;;5077336;28;20594;-57
2022/10/22 09:43:23;;;;;;;6.28;1.83;;;;;;;;;;5087975;28;20111;-57
2022/10/22 09:45:54;;;;;;;8.65;2.20;;;;;;;;;;5095059;28;20060;-57
2022/10/22 09:48:25;;;;;;;6.47;1.98;;;;;;;;;;5074544;28;20394;-57
2022/10/22 09:50:54;;;;;;;8.73;2.17;;;;;;;;;;5088101;28;20031;-57
2022/10/22 09:53:25;;;;;;;5.78;1.90;;;;;;;;;;5085488;28;20459;-56
2022/10/22 09:55:51;;;;;;;6.95;2.15;;;;;;;;;;5087858;28;20085;-57
2022/10/22 09:58:16;;;;;;;6.35;1.90;;;;;;;;;;5077522;28;20048;-57
2022/10/22 10:00:43;;;;;;;6.28;2.00;;;;;;;;;;5093048;28;20522;-56
2022/10/22 10:03:14;;;;;;;9.15;2.17;;;;;;;;;;5093628;28;20046;-57
2022/10/22 10:05:40;;;;;;;6.80;2.05;;;;;;;;;;5089802;27;20048;-57
2022/10/22 10:08:10;;;;;;;8.23;1.88;;;;;;;;;;5090453;28;20024;-57
2022/10/22 10:10:38;;;;;;;8.68;2.17;;;;;;;;;;5083163;28;20028;-57
2022/10/22 10:13:22;;;;;;;11.02;2.40;;;;;;;;;;5090711;28;20024;-57
2022/10/22 10:15:47;;;;;;;8.18;2.00;;;;;;;;;;5089557;28;20066;-57
2022/10/22 10:18:22;;;;;;;5.85;2.25;;;;;;;;;;5095361;28;20084;-55
2022/10/22 10:21:03;;;;;;;5.47;1.83;;;;;;;;;;5085269;28;20036;-56
2022/10/22 10:23:40;;;;;;;13.63;2.72;;;;;;;;;;5084855;28;20070;-56
2022/10/22 10:26:23;;;;;;;4.25;1.77;;;;;;;;;;5090249;28;20066;-56
2022/10/22 10:28:54;;;;;;;9.43;2.00;;;;;;;;;;5083915;28;20051;-56
2022/10/22 10:31:43;;;;;;;5.75;1.60;;;;;;;;;;5074097;28;20016;-56
2022/10/22 10:34:14;;;;;;;6.88;1.70;;;;;;;;;;5053592;28;20481;-56
2022/10/22 10:36:45;;;;;;;3.20;1.45;;;;;;;;;;5088339;28;20046;-55
2022/10/22 10:39:12;;;;;;;8.02;1.80;;;;;;;;;;5092703;28;20081;-56
2022/10/22 10:41:55;;;;;;;10.10;1.75;;;;;;;;;;5085607;28;20035;-56
2022/10/22 10:44:23;;;;;;;8.32;2.00;;;;;;;;;;5081392;28;20038;-56
2022/10/22 10:46:53;;;;;;;4.55;1.63;;;;;;;;;;5087945;28;20026;-56
2022/10/22 10:49:19;;;;;;;7.68;1.88;;;;;;;;;;5083406;28;20548;-56
2022/10/22 10:52:00;;;;;;;7.35;1.70;;;;;;;;;;5080840;28;20115;-56
2022/10/22 10:54:26;;;;;;;11.50;1.80;;;;;;;;;;5090606;28;20501;-56
2022/10/22 10:56:51;;;;;;;6.72;2.20;;;;;;;;;;5090906;28;20024;-56
2022/10/22 10:59:26;;;;;;;7.97;1.88;;;;;;;;;;5092868;28;20541;-56
2022/10/22 11:01:51;;;;;;;5.70;1.70;;;;;;;;;;5093514;28;20032;-56
2022/10/22 11:04:32;;;;;;;6.97;1.70;;;;;;;;;;5081098;28;20040;-57
2022/10/22 11:06:57;;;;;;;5.18;1.52;;;;;;;;;;5086997;28;20047;-56
2022/10/22 11:09:27;;;;;;;8.02;1.77;;;;;;;;;;5085858;28;20023;-56
2022/10/22 11:11:52;;;;;;;9.80;2.20;;;;;;;;;;5079896;28;20225;-56
2022/10/22 11:14:17;;;;;;;5.55;1.40;;;;;;;;;;5092767;28;20030;-56
2022/10/22 11:16:51;;;;;;;9.02;1.65;;;;;;;;;;5088642;28;20023;-55
2022/10/22 11:19:43;;;;;;;10.00;1.73;;;;;;;;;;5080637;28;20024;-57
2022/10/22 11:22:14;;;;;;;12.63;2.70;;;;;;;;;;5080063;28;20406;-56
2022/10/22 11:24:42;;;;;;;8.40;1.60;;;;;;;;;;5085233;28;20004;-55
2022/10/22 11:27:07;;;;;;;6.20;1.80;;;;;;;;;;5089174;28;20330;-56
2022/10/22 11:29:34;;;;;;;6.25;1.60;;;;;;;;;;5085613;28;20017;-56
2022/10/22 11:31:59;;;;;;;7.40;1.70;;;;;;;;;;5080650;28;20545;-56
2022/10/22 11:34:33;;;;;;;7.70;1.83;;;;;;;;;;5083206;28;20050;-56
2022/10/22 11:36:58;;;;;;;8.55;1.83;;;;;;;;;;5079101;28;20485;-57
2022/10/22 11:39:42;;;;;;;6.45;1.60;;;;;;;;;;5088569;28;20019;-57
2022/10/22 11:42:18;;;;;;;10.30;1.83;;;;;;;;;;5085498;28;20037;-56
2022/10/22 11:44:46;;;;;;;8.00;2.10;;;;;;;;;;5081446;28;20115;-55
2022/10/22 11:47:19;;;;;;;12.18;1.83;;;;;;;;;;5089497;28;20481;-56
2022/10/22 11:49:58;;;;;;;6.85;1.63;;;;;;;;;;5094317;28;20028;-56
2022/10/22 11:52:29;;;;;;;5.40;1.77;;;;;;;;;;5085106;28;20572;-57
2022/10/22 11:54:55;;;;;;;10.93;1.90;;;;;;;;;;5087825;28;20055;-56
2022/10/22 11:57:23;;;;;;;6.82;1.88;;;;;;;;;;5098019;28;20034;-56
2022/10/22 11:59:51;;;;;;;6.35;1.65;;;;;;;;;;5088360;28;20111;-56
2022/10/22 12:02:21;;;;;;;7.65;2.33;;;;;;;;;;5085370;28;20550;-56
2022/10/22 12:04:46;;;;;;;9.35;2.15;;;;;;;;;;5095985;28;20020;-56
2022/10/22 12:07:27;;;;;;;6.30;1.67;;;;;;;;;;5085149;28;20583;-56
2022/10/22 12:09:52;;;;;;;4.28;1.70;;;;;;;;;;5092793;28;20020;-55
2022/10/22 12:12:18;;;;;;;14.90;2.58;;;;;;;;;;5089030;28;20069;-56
2022/10/22 12:14:51;;;;;;;7.00;1.75;;;;;;;;;;5092606;28;20066;-56
2022/10/22 12:17:16;;;;;;;4.65;1.77;;;;;;;;;;5073414;28;20054;-56
2022/10/22 12:19:45;;;;;;;6.72;1.70;;;;;;;;;;5088934;28;20059;-56
2022/10/22 12:22:22;;;;;;;8.93;1.90;;;;;;;;;;5088001;28;21850;-56
2022/10/22 12:24:48;;;;;;;5.68;1.52;;;;;;;;;;5085744;28;20024;-56
2022/10/22 12:27:18;;;;;;;5.80;1.60;;;;;;;;;;5087368;28;20059;-56
2022/10/22 12:29:43;;;;;;;7.43;1.90;;;;;;;;;;5081119;28;20035;-56
2022/10/22 12:32:09;;;;;;;4.93;1.70;;;;;;;;;;5084056;28;20042;-56
2022/10/22 12:34:34;;;;;;;4.47;1.52;;;;;;;;;;5075800;28;20032;-56
2022/10/22 12:37:02;;;;;;;8.68;1.73;;;;;;;;;;5084189;28;20028;-56
2022/10/22 12:39:28;;;;;;;12.13;2.10;;;;;;;;;;5087416;28;20473;-56
2022/10/22 12:41:54;;;;;;;9.38;1.90;;;;;;;;;;5083768;28;20044;-56
2022/10/22 12:44:19;;;;;;;11.43;2.20;;;;;;;;;;5076090;28;20032;-56
2022/10/22 12:46:45;;;;;;;6.20;1.40;;;;;;;;;;5081730;28;20026;-56
2022/10/22 12:49:15;;;;;;;8.13;2.53;;;;;;;;;;5076615;28;20024;-56
2022/10/22 12:51:41;;;;;;;7.18;1.60;;;;;;;;;;5071205;28;20025;-56
2022/10/22 12:54:07;;;;;;;8.75;1.67;;;;;;;;;;5089950;28;20157;-56
2022/10/22 12:56:32;;;;;;;8.23;1.83;;;;;;;;;;5106836;27;20030;-56
2022/10/22 12:59:01;;;;;;;10.15;1.80;;;;;;;;;;5090642;28;20106;-56
2022/10/22 13:01:28;;;;;;;5.97;1.58;;;;;;;;;;5082399;28;20072;-56
2022/10/22 13:04:04;;;;;;;14.55;1.77;;;;;;;;;;5081383;28;20023;-56
2022/10/22 13:06:31;;;;;;;4.68;1.70;;;;;;;;;;5088867;28;20123;-56
2022/10/22 13:08:59;;;;;;;7.25;1.58;;;;;;;;;;5090905;28;20374;-57
2022/10/22 13:11:32;;;;;;;6.82;1.75;;;;;;;;;;5082558;28;20020;-56
2022/10/22 13:14:03;;;;;;;7.65;1.77;;;;;;;;;;5088209;28;20020;-56
2022/10/22 13:16:30;;;;;;;8.00;2.08;;;;;;;;;;5090199;27;20074;-56
2022/10/22 13:18:56;;;;;;;10.77;1.75;;;;;;;;;;5084572;28;20040;-56
2022/10/22 13:21:22;;;;;;;4.70;1.73;;;;;;;;;;5090863;28;20140;-57
2022/10/22 13:24:11;;;;;;;12.00;2.10;;;;;;;;;;5089003;28;20099;-57
2022/10/22 13:26:36;;;;;;;12.02;1.80;;;;;;;;;;5063761;28;20590;-56
2022/10/22 13:29:02;;;;;;;9.50;2.13;;;;;;;;;;5081939;28;20099;-57
2022/10/22 13:31:28;;;;;;;8.45;1.83;;;;;;;;;;5079872;28;20024;-55
2022/10/22 13:33:57;;;;;;;8.30;1.90;;;;;;;;;;5086671;28;20382;-55
2022/10/22 13:36:22;;;;;;;7.10;1.93;;;;;;;;;;5090681;28;20498;-56
2022/10/22 13:38:48;;;;;;;9.35;1.73;;;;;;;;;;5094647;28;20260;-56
2022/10/22 13:41:23;;;;;;;6.53;1.92;;;;;;;;;;5091783;28;20489;-56
2022/10/22 13:43:48;;;;;;;9.65;1.80;;;;;;;;;;5086645;28;20027;-56
2022/10/22 13:46:13;;;;;;;8.32;2.00;;;;;;;;;;5097590;28;20023;-56
2022/10/22 13:48:38;;;;;;;10.48;2.25;;;;;;;;;;5094008;28;20019;-57
2022/10/22 13:51:06;;;;;;;8.05;1.90;;;;;;;;;;5088505;28;20143;-56
2022/10/22 13:53:31;;;;;;;7.95;1.83;;;;;;;;;;5090138;28;20390;-56
2022/10/22 13:55:56;;;;;;;8.38;2.55;;;;;;;;;;5086180;28;20031;-56
2022/10/22 13:58:23;;;;;;;10.27;2.10;;;;;;;;;;5079090;28;20020;-56
2022/10/22 14:00:54;;;;;;;7.25;2.08;;;;;;;;;;5088328;28;20101;-55
2022/10/22 14:03:20;;;;;;;10.88;2.47;;;;;;;;;;5087490;28;20028;-56
2022/10/22 14:05:46;;;;;;;5.30;1.80;;;;;;;;;;5082541;28;20166;-56
2022/10/22 14:08:11;;;;;;;8.60;1.77;;;;;;;;;;5093733;28;20552;-57
2022/10/22 14:10:37;;;;;;;11.75;2.15;;;;;;;;;;5101560;27;20032;-55
2022/10/22 14:13:02;;;;;;;6.45;1.75;;;;;;;;;;5092701;28;20067;-57
2022/10/22 14:15:27;;;;;;;5.95;2.00;;;;;;;;;;5085722;28;20020;-56
2022/10/22 14:17:53;;;;;;;8.45;1.80;;;;;;;;;;5079960;28;20052;-56
2022/10/22 14:20:20;;;;;;;9.48;2.25;;;;;;;;;;5085143;28;20098;-56
2022/10/22 14:22:46;;;;;;;6.88;1.90;;;;;;;;;;5077621;28;20032;-57
2022/10/22 14:25:15;;;;;;;7.07;1.80;;;;;;;;;;5090904;28;20022;-57
2022/10/22 14:27:40;;;;;;;8.55;2.20;;;;;;;;;;5089876;28;20098;-56
2022/10/22 14:30:05;;;;;;;5.22;1.65;;;;;;;;;;5085831;28;20087;-56
2022/10/22 14:32:31;;;;;;;6.10;1.70;;;;;;;;;;5087107;28;20039;-56